San Antonio, TX (78247)

1:49 PM CDT on March 24, 2017 (GMT -0500)
Longs Creek - North | | Change Station

Elev 906 ft 29.60 °N, 98.41 °W | Updated 3 hours ago

Mostly Cloudy
Mostly Cloudy
68.9 °F
Feels Like 68.9 °F
N
0.0
Wind Variable Wind from South
Gusts 0.0 mph

Today
High -- | Low -- °F
--% Chance of Precip.
Yesterday
High -- | Low -- °F
Precip. -- in
Pressure 29.95 in
Visibility 10.0 miles
Clouds Scattered Clouds 2400 ft
Scattered Clouds 3700 ft
Dew Point 64 °F
Humidity 83%
Rainfall 0.00 in
Snow Depth Not available.
7:32 AM 7:47 PM
Waning Crescent, 13% visible
SPECI KSAT 241829Z 20013KT 10SM SCT024 SCT037 25/18 A2995 RMK AO2 T02500178
Pressure 29.95 in
Visibility 10.0 miles
Clouds Scattered Clouds 2400 ft
Scattered Clouds 3700 ft
Dew Point 64 °F
Humidity 83%
Rainfall 0.00 in
Snow Depth Not available.
7:32 AM 7:47 PM
Waning Crescent, 13% visible
SPECI KSAT 241829Z 20013KT 10SM SCT024 SCT037 25/18 A2995 RMK AO2 T02500178

Get Severe Weather Alerts

Thanks for signing up!

Be on the lookout for a verification email in your inbox.

You'll start receiving the daily forecast at 8 AM.

×

10-Day Weather Forecast

Almanac

Astronomy

Mar. 24, 2017 Rise Set
Actual Time
Civil Twilight
Nautical Twilight
Astronomical Twilight
Moon
Length of Visible Light
Length of Day
Tomorrow will be .
, % of the Moon is Illuminated

Today's Extremes

State Highs State Lows

Community

WunderPhotos

Upload Photos

1,962,540 photos uploaded!

WunderBlog® & News

Nearby

Air Quality

  Air Quality AQ Index Pollutant
Not available.

Snow Depth

Station Depth Elevation

Earthquake Activity

City Distance Mag. Time & Date
Minimum magnitude displayed is 2.5.

Earthquake Activity

City Distance Mag. Time & Date
Minimum magnitude displayed is 2.5.

Coastal Water Temperatures

Place Temperature

Stations

Nearby Weather Stations

Station Location Temp. Windchill Dew Point Humidity Wind Precip. Elev Updated Type
                   

Watches & Warnings

There are currently no watches in effect.